Branchburg, New Jersey
Current Conditions -  °F | °C
As of 12:53 PM on Saturday 20 Dec 2014 (Local Time) from KSMQ Reporting Station
Overcast Overcast  
Wind Chill: 28°   Ceiling: 3000
Heat Index: 33°   Visibility: 10mi
Dew Point: 20°   Wind: 6mph
Humidity: 59%   Direction: 360°N
Pressure: 30.24"   Gusts: NA
Location:  40.5554°N, 74.6608°W
Report Text: KSMQ 201753Z AUTO 36005KT 10SM OVC030 01/M07 A3024 RMK AO2 SLP244 T00061067 10006 21006 58019
Loading
Personal Weather Stations






























Interactive Weather Map New forecast layout! Learn more

10-Day Weather Forecast

Advertisements
Track Severe Weather on mobile